createdAt,value
2019-04-25T00:00:31.470Z,99.99
2019-04-25T00:01:31.326Z,99.99
2019-04-25T00:02:32.478Z,99.99
2019-04-25T00:03:31.984Z,99.99
2019-04-25T00:04:31.577Z,99.99
2019-04-25T00:05:31.187Z,99.99
2019-04-25T00:06:32.151Z,99.99
2019-04-25T00:07:31.287Z,99.99
2019-04-25T00:08:31.263Z,99.99
2019-04-25T00:09:31.824Z,99.99
2019-04-25T00:10:31.852Z,99.99
2019-04-25T00:11:31.314Z,99.99
2019-04-25T00:12:32.048Z,99.99
2019-04-25T00:13:31.738Z,99.99
2019-04-25T00:14:31.539Z,99.99
2019-04-25T00:15:31.953Z,99.99
2019-04-25T00:16:31.337Z,99.99
2019-04-25T00:17:31.579Z,99.99
2019-04-25T00:18:31.881Z,99.99
2019-04-25T00:19:31.726Z,99.99
2019-04-25T00:20:31.400Z,99.99
2019-04-25T00:21:31.775Z,99.99
2019-04-25T00:22:31.734Z,99.99
2019-04-25T00:23:31.722Z,99.99
2019-04-25T00:24:32.030Z,99.99
2019-04-25T00:25:31.481Z,99.99
2019-04-25T00:26:31.470Z,99.99
2019-04-25T00:27:32.012Z,99.99
2019-04-25T00:28:31.699Z,99.99
2019-04-25T00:29:31.882Z,99.99
2019-04-25T00:30:31.534Z,99.99
2019-04-25T00:31:31.901Z,99.99
2019-04-25T00:32:31.659Z,99.99
2019-04-25T00:33:31.668Z,99.99
2019-04-25T00:34:33.611Z,99.99
2019-04-25T00:35:31.635Z,99.99
2019-04-25T00:36:31.923Z,99.99
2019-04-25T00:37:32.340Z,99.99
2019-04-25T00:38:31.893Z,99.99
2019-04-25T00:39:32.030Z,99.99
2019-04-25T00:40:31.940Z,99.99
2019-04-25T00:41:32.073Z,99.99
2019-04-25T00:42:31.975Z,99.99
2019-04-25T00:43:31.729Z,99.99
2019-04-25T00:44:32.051Z,99.99
2019-04-25T00:45:31.840Z,99.99
2019-04-25T00:46:32.195Z,99.99
2019-04-25T00:47:31.770Z,99.99
2019-04-25T00:48:31.847Z,99.99
2019-04-25T00:49:32.211Z,99.99
2019-04-25T00:50:31.967Z,99.99
2019-04-25T00:51:31.878Z,99.99
2019-04-25T00:52:31.841Z,99.99
2019-04-25T00:53:32.379Z,99.99
2019-04-25T00:54:31.865Z,99.99
2019-04-25T00:55:31.877Z,99.99
2019-04-25T00:56:32.239Z,99.99
2019-04-25T00:57:32.120Z,99.99
2019-04-25T00:58:31.924Z,99.99
2019-04-25T00:59:32.129Z,99.99
2019-04-25T01:00:32.676Z,99.99
2019-04-25T01:01:31.978Z,99.99
2019-04-25T01:02:31.974Z,99.99
2019-04-25T01:03:32.006Z,99.99
2019-04-25T01:04:33.622Z,99.99
2019-04-25T01:05:32.015Z,99.99
2019-04-25T01:06:32.051Z,99.99
2019-04-25T01:07:34.302Z,99.99
2019-04-25T01:08:32.073Z,99.99
2019-04-25T01:09:32.346Z,99.99
2019-04-25T01:10:32.088Z,99.99
2019-04-25T01:11:32.099Z,99.99
2019-04-25T01:12:32.109Z,99.99
2019-04-25T01:13:32.240Z,99.99
2019-04-25T01:14:33.761Z,99.99
2019-04-25T01:15:32.156Z,99.99
2019-04-25T01:16:32.180Z,99.99
2019-04-25T01:17:32.192Z,99.99
2019-04-25T01:18:33.681Z,99.99
2019-04-25T01:19:32.214Z,99.99
2019-04-25T01:20:32.236Z,99.99
2019-04-25T01:21:33.936Z,99.99
2019-04-25T01:22:32.251Z,99.99
2019-04-25T01:23:33.661Z,99.99
2019-04-25T01:24:33.915Z,99.99
2019-04-25T01:25:40.705Z,99.99
2019-04-25T01:26:33.532Z,99.99
2019-04-25T01:27:33.285Z,99.99
2019-04-25T01:28:33.571Z,99.99
2019-04-25T01:29:33.488Z,99.99
2019-04-25T01:30:33.868Z,99.99
2019-04-25T01:31:33.616Z,99.99
2019-04-25T01:32:33.530Z,99.99
2019-04-25T01:33:33.340Z,99.99
2019-04-25T01:34:34.172Z,99.99
2019-04-25T01:35:33.458Z,99.99
2019-04-25T01:36:33.246Z,99.99
2019-04-25T01:37:34.094Z,99.99
2019-04-25T01:38:33.526Z,99.99
2019-04-25T01:39:34.132Z,99.99
2019-04-25T01:40:33.403Z,99.99
2019-04-25T01:41:34.112Z,99.99
2019-04-25T01:42:33.752Z,99.99
2019-04-25T01:43:33.138Z,99.99
2019-04-25T01:44:34.061Z,99.99
2019-04-25T01:45:33.888Z,99.99
2019-04-25T01:46:34.129Z,99.99
2019-04-25T01:47:33.643Z,99.99
2019-04-25T01:48:33.384Z,99.99
2019-04-25T01:49:33.963Z,99.99
2019-04-25T01:50:33.210Z,99.99
2019-04-25T01:51:33.928Z,99.99
2019-04-25T01:52:33.455Z,99.99
2019-04-25T01:53:33.880Z,99.99
2019-04-25T01:54:33.920Z,99.99
2019-04-25T01:55:33.584Z,99.99
2019-04-25T01:56:33.246Z,99.99
2019-04-25T01:57:33.717Z,99.99
2019-04-25T01:58:33.742Z,99.99
2019-04-25T01:59:33.809Z,99.99
2019-04-25T02:00:33.302Z,99.99
2019-04-25T02:01:34.091Z,99.99
2019-04-25T02:02:33.575Z,99.99
2019-04-25T02:03:35.457Z,99.99
2019-04-25T02:04:34.139Z,99.99
2019-04-25T02:05:33.841Z,99.99
2019-04-25T02:06:33.481Z,99.99
2019-04-25T02:07:33.390Z,99.99
2019-04-25T02:08:33.998Z,99.99
2019-04-25T02:09:33.720Z,99.99
2019-04-25T02:10:34.325Z,99.99
2019-04-25T02:11:34.006Z,99.99
2019-04-25T02:12:33.633Z,99.99
2019-04-25T02:13:33.638Z,99.99
2019-04-25T02:14:33.660Z,99.99
2019-04-25T02:15:33.433Z,99.99
2019-04-25T02:16:33.546Z,99.99
2019-04-25T02:17:34.040Z,99.99
2019-04-25T02:18:33.577Z,99.99
2019-04-25T02:19:33.900Z,99.99
2019-04-25T02:20:33.947Z,99.99
2019-04-25T02:21:33.483Z,99.99
2019-04-25T02:22:34.186Z,99.99
2019-04-25T02:23:34.140Z,99.99
2019-04-25T02:24:33.865Z,99.99
2019-04-25T02:25:33.285Z,99.99
2019-04-25T02:26:34.060Z,99.99
2019-04-25T02:27:34.234Z,99.99
2019-04-25T02:28:33.852Z,99.99
2019-04-25T02:29:33.323Z,99.99
2019-04-25T02:30:35.616Z,99.99
2019-04-25T02:31:34.830Z,99.99
2019-04-25T02:32:34.405Z,99.99
2019-04-25T02:33:34.035Z,99.99
2019-04-25T02:34:34.725Z,99.99
2019-04-25T02:35:34.976Z,99.99
2019-04-25T02:36:34.695Z,99.99
2019-04-25T02:37:35.151Z,99.99
2019-04-25T02:38:34.233Z,99.99
2019-04-25T02:39:36.765Z,99.99
2019-04-25T02:40:33.941Z,99.99
2019-04-25T02:41:34.355Z,99.99
2019-04-25T02:42:34.352Z,99.99
2019-04-25T02:43:35.081Z,99.99
2019-04-25T02:44:34.555Z,99.99
2019-04-25T02:45:34.423Z,99.99
2019-04-25T02:46:34.845Z,99.99
2019-04-25T02:47:34.451Z,99.99
2019-04-25T02:48:34.318Z,99.99
2019-04-25T02:49:38.780Z,99.99
2019-04-25T02:50:34.364Z,99.99
2019-04-25T02:51:35.048Z,99.99
2019-04-25T02:52:34.483Z,99.99
2019-04-25T02:53:36.562Z,99.99
2019-04-25T02:54:34.873Z,99.99
2019-04-25T02:55:37.288Z,99.99
2019-04-25T02:56:34.825Z,99.99
2019-04-25T02:57:34.534Z,99.99
2019-04-25T02:58:34.247Z,99.99
2019-04-25T02:59:34.573Z,99.99
2019-04-25T03:00:47.717Z,99.99
2019-04-25T03:01:34.325Z,99.99
2019-04-25T03:02:34.406Z,99.99
2019-04-25T03:03:34.738Z,99.99
2019-04-25T03:04:33.985Z,99.99
2019-04-25T03:05:35.481Z,99.99
2019-04-25T03:06:35.024Z,99.99
2019-04-25T03:07:34.650Z,99.99
2019-04-25T03:08:35.492Z,99.99
2019-04-25T03:09:35.270Z,99.99
2019-04-25T03:10:34.924Z,99.99
2019-04-25T03:11:34.693Z,99.99
2019-04-25T03:12:36.625Z,99.99
2019-04-25T03:13:34.277Z,99.99
2019-04-25T03:14:35.213Z,99.99
2019-04-25T03:15:34.247Z,99.99
2019-04-25T03:16:34.732Z,99.99
2019-04-25T03:17:34.340Z,99.99
2019-04-25T03:18:34.844Z,99.99
2019-04-25T03:19:34.344Z,99.99
2019-04-25T03:20:35.473Z,99.99
2019-04-25T03:21:35.242Z,99.99
2019-04-25T03:22:34.498Z,99.99
2019-04-25T03:23:34.910Z,99.99
2019-04-25T03:24:35.093Z,99.99
2019-04-25T03:25:33.905Z,99.99
2019-04-25T03:26:40.244Z,99.99
2019-04-25T03:27:34.082Z,99.99
2019-04-25T03:28:34.072Z,99.99
2019-04-25T03:29:34.269Z,99.99
2019-04-25T03:30:35.542Z,99.99
2019-04-25T03:31:34.912Z,99.99
2019-04-25T03:32:35.526Z,99.99
2019-04-25T03:33:37.775Z,99.99
2019-04-25T03:34:35.099Z,99.99
2019-04-25T03:35:34.033Z,99.99
2019-04-25T03:36:34.056Z,99.99
2019-04-25T03:37:35.222Z,99.99
2019-04-25T03:38:34.289Z,99.99
2019-04-25T03:39:34.102Z,99.99
2019-04-25T03:40:34.102Z,99.99
2019-04-25T03:41:34.187Z,99.99
2019-04-25T03:42:34.133Z,99.99
2019-04-25T03:43:34.151Z,99.99
2019-04-25T03:44:34.154Z,99.99
2019-04-25T03:45:34.175Z,99.99
2019-04-25T03:46:34.183Z,99.99
2019-04-25T03:47:34.210Z,99.99
2019-04-25T03:48:36.790Z,99.99
2019-04-25T03:49:34.217Z,99.99
2019-04-25T03:50:34.240Z,99.99
2019-04-25T03:51:34.257Z,99.99
2019-04-25T03:52:34.931Z,99.99
2019-04-25T03:53:34.273Z,99.99
2019-04-25T03:54:34.292Z,99.99
2019-04-25T03:55:35.950Z,99.99
2019-04-25T03:56:34.308Z,99.99
2019-04-25T03:57:34.326Z,99.99
2019-04-25T03:58:34.347Z,99.99
2019-04-25T03:59:34.343Z,99.99
2019-04-25T04:00:36.375Z,99.99
2019-04-25T04:01:34.383Z,99.99
2019-04-25T04:02:34.480Z,99.99
2019-04-25T04:03:34.404Z,99.99
2019-04-25T04:04:34.415Z,99.99
2019-04-25T04:05:34.571Z,99.99
2019-04-25T04:06:34.439Z,99.99
2019-04-25T04:07:34.468Z,99.99
2019-04-25T04:08:35.718Z,99.99
2019-04-25T04:09:34.480Z,99.99
2019-04-25T04:10:34.508Z,99.99
2019-04-25T04:11:34.514Z,99.99
2019-04-25T04:12:35.554Z,99.99
2019-04-25T04:13:34.534Z,99.99
2019-04-25T04:14:34.557Z,99.99
2019-04-25T04:15:34.555Z,99.99
2019-04-25T04:16:34.574Z,99.99
2019-04-25T04:17:34.586Z,99.99
2019-04-25T04:18:34.600Z,99.99
2019-04-25T04:19:34.604Z,99.99
2019-04-25T04:20:34.638Z,99.99
2019-04-25T04:21:34.650Z,99.99
2019-04-25T04:22:34.652Z,99.99
2019-04-25T04:23:34.670Z,99.99
2019-04-25T04:24:34.672Z,99.99
2019-04-25T04:25:34.703Z,99.99
2019-04-25T04:26:34.698Z,99.99
2019-04-25T04:28:34.740Z,99.99
2019-04-25T04:29:34.756Z,99.99
2019-04-25T04:30:34.766Z,99.99
2019-04-25T04:31:34.769Z,99.99
2019-04-25T04:32:34.777Z,99.99
2019-04-25T04:33:34.795Z,99.99
2019-04-25T04:34:34.831Z,99.99
2019-04-25T04:35:34.820Z,99.99
2019-04-25T04:36:34.831Z,99.99
2019-04-25T04:37:34.857Z,99.99
2019-04-25T04:38:34.914Z,99.99
2019-04-25T04:39:34.886Z,99.99
2019-04-25T04:40:36.163Z,99.99
2019-04-25T04:41:34.901Z,99.99
2019-04-25T04:42:34.908Z,99.99
2019-04-25T04:43:34.940Z,99.99
2019-04-25T04:44:34.940Z,99.99
2019-04-25T04:45:34.965Z,99.99
2019-04-25T04:46:34.979Z,99.99
2019-04-25T04:47:34.999Z,99.99
2019-04-25T04:48:35.005Z,99.99
2019-04-25T04:49:35.010Z,99.99
2019-04-25T04:50:35.032Z,99.99
2019-04-25T04:51:35.043Z,99.99
2019-04-25T04:52:35.057Z,99.99
2019-04-25T04:53:35.868Z,99.99
2019-04-25T04:54:35.066Z,99.99
2019-04-25T04:55:35.081Z,99.99
2019-04-25T04:56:35.121Z,99.99
2019-04-25T04:57:36.244Z,99.99
2019-04-25T04:58:35.120Z,99.99
2019-04-25T04:59:35.139Z,99.99
2019-04-25T05:00:35.146Z,99.99
2019-04-25T05:01:35.160Z,99.99
2019-04-25T05:02:35.190Z,99.99
2019-04-25T05:03:35.199Z,99.99
2019-04-25T05:04:35.208Z,99.99
2019-04-25T05:05:35.207Z,99.99
2019-04-25T05:06:35.230Z,99.99
2019-04-25T05:07:35.249Z,99.99
2019-04-25T05:08:35.265Z,99.99
2019-04-25T05:09:35.281Z,99.99
2019-04-25T05:10:35.292Z,99.99
2019-04-25T05:11:35.299Z,99.99
2019-04-25T05:12:35.321Z,99.99
2019-04-25T05:13:35.321Z,99.99
2019-04-25T05:14:35.327Z,99.99
2019-04-25T05:15:35.345Z,99.99
2019-04-25T05:16:35.357Z,99.99
2019-04-25T05:17:35.375Z,99.99
2019-04-25T05:18:39.540Z,99.99
2019-04-25T05:19:35.401Z,99.99
2019-04-25T05:20:35.623Z,99.99
2019-04-25T05:21:35.432Z,99.99
2019-04-25T05:22:35.433Z,99.99
2019-04-25T05:23:35.446Z,99.99
2019-04-25T05:24:35.476Z,99.99
2019-04-25T05:25:35.478Z,99.99
2019-04-25T05:26:35.486Z,99.37
2019-04-25T05:27:46.006Z,99.46
2019-04-25T05:28:35.511Z,99.46
2019-04-25T05:29:35.527Z,99.99
2019-04-25T05:30:35.542Z,99.95
2019-04-25T05:31:35.569Z,99.99
2019-04-25T05:32:35.620Z,99.27
2019-04-25T05:33:35.598Z,98.42
2019-04-25T05:34:35.599Z,99.08
2019-04-25T05:35:35.605Z,99.27
2019-04-25T05:36:35.632Z,98.51
2019-04-25T05:37:35.637Z,98.13
2019-04-25T05:38:35.661Z,98.47
2019-04-25T05:39:35.661Z,97.85
2019-04-25T05:40:35.683Z,98.42
2019-04-25T05:41:36.015Z,98.51
2019-04-25T05:42:35.700Z,98.37
2019-04-25T05:43:35.726Z,98.56
2019-04-25T05:44:35.725Z,97.42
2019-04-25T05:45:35.747Z,97.71
2019-04-25T05:46:35.761Z,98.37
2019-04-25T05:47:35.762Z,97.42
2019-04-25T05:48:35.791Z,97.03
2019-04-25T05:49:35.790Z,98.08
2019-04-25T05:50:35.831Z,97.32
2019-04-25T05:51:35.824Z,97.13
2019-04-25T05:52:35.847Z,97.61
2019-04-25T05:53:35.846Z,98.18
2019-04-25T05:54:35.865Z,97.22
2019-04-25T05:55:35.879Z,96.94
2019-04-25T05:56:35.889Z,96.75
2019-04-25T05:57:45.477Z,96.66
2019-04-25T05:58:36.118Z,95.61
2019-04-25T05:59:35.926Z,95.61
2019-04-25T06:00:35.948Z,95.98
2019-04-25T06:01:36.038Z,96.37
2019-04-25T06:02:35.964Z,94.98
2019-04-25T06:03:35.990Z,94.41
2019-04-25T06:04:36.004Z,94.79
2019-04-25T06:05:36.022Z,94.41
2019-04-25T06:06:36.863Z,93.55
2019-04-25T06:07:36.047Z,93.93
2019-04-25T06:08:36.049Z,93.36
2019-04-25T06:09:36.060Z,93.84
2019-04-25T06:10:36.082Z,93.36
2019-04-25T06:11:36.106Z,96.22
2019-04-25T06:12:36.113Z,94.70
2019-04-25T06:13:36.120Z,93.93
2019-04-25T06:14:36.134Z,93.98
2019-04-25T06:15:36.139Z,93.02
2019-04-25T06:16:36.153Z,92.45
2019-04-25T06:17:36.218Z,91.30
2019-04-25T06:18:36.217Z,91.26
2019-04-25T06:19:36.451Z,91.45
2019-04-25T06:20:36.212Z,91.83
2019-04-25T06:21:36.228Z,93.07
2019-04-25T06:22:36.272Z,92.12
2019-04-25T06:23:36.266Z,92.12
2019-04-25T06:24:36.267Z,91.59
2019-04-25T06:25:39.739Z,90.97
2019-04-25T06:26:39.731Z,91.45
2019-04-25T06:27:36.309Z,92.31
2019-04-25T06:28:36.330Z,93.12
2019-04-25T06:29:36.340Z,91.97
2019-04-25T06:30:36.349Z,91.30
2019-04-25T06:31:36.373Z,91.30
2019-04-25T06:33:36.427Z,91.30
2019-04-25T06:34:36.552Z,90.54
2019-04-25T06:35:36.424Z,91.11
2019-04-25T06:36:36.429Z,90.11
2019-04-25T06:37:36.463Z,88.58
2019-04-25T06:38:36.463Z,88.20
2019-04-25T06:39:36.481Z,87.62
2019-04-25T06:40:36.485Z,87.72
2019-04-25T06:41:36.499Z,86.96
2019-04-25T06:42:36.511Z,86.67
2019-04-25T06:43:36.540Z,86.76
2019-04-25T06:44:36.545Z,86.04
2019-04-25T06:45:36.572Z,85.66
2019-04-25T06:46:36.582Z,85.18
2019-04-25T06:47:36.585Z,84.52
2019-04-25T06:48:36.610Z,84.03
2019-04-25T06:49:37.471Z,83.56
2019-04-25T06:50:36.641Z,82.98
2019-04-25T06:51:36.645Z,83.37
2019-04-25T06:52:36.670Z,82.60
2019-04-25T06:53:36.684Z,82.41
2019-04-25T06:54:36.685Z,81.55
2019-04-25T06:55:36.708Z,81.21
2019-04-25T06:56:36.709Z,81.93
2019-04-25T06:57:36.740Z,81.11
2019-04-25T06:58:36.750Z,80.25
2019-04-25T06:59:40.885Z,80.35
2019-04-25T07:00:41.237Z,80.44
2019-04-25T07:01:36.807Z,80.06
2019-04-25T07:02:36.790Z,79.77
2019-04-25T07:03:36.810Z,79.49
2019-04-25T07:04:36.825Z,79.72
2019-04-25T07:05:40.560Z,78.63
2019-04-25T07:06:36.851Z,79.24
2019-04-25T07:07:36.868Z,78.81
2019-04-25T07:08:36.892Z,79.49
2019-04-25T07:09:36.910Z,79.81
2019-04-25T07:10:36.921Z,79.43
2019-04-25T07:11:36.938Z,79.05
2019-04-25T07:12:36.939Z,77.13
2019-04-25T07:13:38.770Z,77.42
2019-04-25T07:14:37.045Z,77.42
2019-04-25T07:15:36.969Z,77.23
2019-04-25T07:16:37.000Z,77.13
2019-04-25T07:17:37.113Z,77.23
2019-04-25T07:18:37.400Z,76.21
2019-04-25T07:19:37.042Z,75.16
2019-04-25T07:20:37.050Z,74.49
2019-04-25T07:21:37.071Z,74.01
2019-04-25T07:22:37.786Z,74.01
2019-04-25T07:23:37.093Z,74.01
2019-04-25T07:24:37.099Z,73.54
2019-04-25T07:25:37.127Z,72.58
2019-04-25T07:26:39.712Z,73.34
2019-04-25T07:27:37.150Z,73.63
2019-04-25T07:28:37.158Z,73.24
2019-04-25T07:29:37.176Z,73.15
2019-04-25T07:30:48.358Z,73.72
2019-04-25T07:31:37.209Z,72.90
2019-04-25T07:32:37.218Z,73.28
2019-04-25T07:33:37.250Z,72.61
2019-04-25T07:34:37.265Z,72.61
2019-04-25T07:35:37.279Z,71.27
2019-04-25T07:36:37.353Z,70.79
2019-04-25T07:37:41.507Z,70.50
2019-04-25T07:38:37.321Z,71.46
2019-04-25T07:39:37.346Z,71.94
2019-04-25T07:40:37.353Z,70.41
2019-04-25T07:41:38.519Z,70.60
2019-04-25T07:42:37.380Z,70.89
2019-04-25T07:43:37.385Z,70.21
2019-04-25T07:44:49.446Z,69.17
2019-04-25T07:45:38.281Z,69.45
2019-04-25T07:46:39.964Z,69.83
2019-04-25T07:47:37.720Z,70.79
2019-04-25T07:48:38.147Z,69.93
2019-04-25T07:49:37.933Z,69.35
2019-04-25T07:50:37.479Z,69.93
2019-04-25T07:51:37.512Z,68.87
2019-04-25T07:52:37.692Z,69.10
2019-04-25T07:53:37.622Z,68.33
2019-04-25T07:54:38.473Z,68.91
2019-04-25T07:55:38.771Z,69.01
2019-04-25T07:56:37.866Z,68.81
2019-04-25T07:57:37.602Z,68.91
2019-04-25T07:58:48.078Z,67.85
2019-04-25T07:59:37.626Z,66.61
2019-04-25T08:00:37.657Z,66.55
2019-04-25T08:01:39.039Z,66.93
2019-04-25T08:02:37.676Z,66.64
2019-04-25T08:03:37.690Z,67.22
2019-04-25T08:04:38.401Z,67.18
2019-04-25T08:05:37.942Z,66.89
2019-04-25T08:06:37.741Z,66.89
2019-04-25T08:07:37.893Z,66.61
2019-04-25T08:08:38.121Z,66.89
2019-04-25T08:09:38.003Z,66.89
2019-04-25T08:10:38.138Z,67.38
2019-04-25T08:11:38.296Z,67.47
2019-04-25T08:12:37.824Z,67.18
2019-04-25T08:13:37.838Z,66.99
2019-04-25T08:14:37.844Z,67.28
2019-04-25T08:15:38.341Z,67.28
2019-04-25T08:16:37.889Z,66.61
2019-04-25T08:17:38.853Z,66.32
2019-04-25T08:18:37.905Z,65.36
2019-04-25T08:19:37.936Z,65.84
2019-04-25T08:20:37.930Z,66.26
2019-04-25T08:21:38.411Z,66.03
2019-04-25T08:22:50.085Z,66.16
2019-04-25T08:23:38.869Z,65.49
2019-04-25T08:24:37.988Z,66.74
2019-04-25T08:25:39.633Z,65.59
2019-04-25T08:26:38.031Z,64.05
2019-04-25T08:27:38.851Z,63.29
2019-04-25T08:28:50.165Z,63.57
2019-04-25T08:29:39.696Z,64.05
2019-04-25T08:30:38.251Z,64.92
2019-04-25T08:31:38.099Z,63.48
2019-04-25T08:32:38.123Z,63.48
2019-04-25T08:33:39.066Z,64.15
2019-04-25T08:34:38.614Z,63.22
2019-04-25T08:35:38.262Z,62.90
2019-04-25T08:36:38.656Z,62.90
2019-04-25T08:37:38.177Z,62.52
2019-04-25T08:38:38.204Z,61.94
2019-04-25T08:39:38.886Z,62.16
2019-04-25T08:40:38.993Z,63.42
2019-04-25T08:41:38.502Z,63.99
2019-04-25T08:42:38.268Z,62.74
2019-04-25T08:43:39.442Z,61.98
2019-04-25T08:44:39.176Z,62.36
2019-04-25T08:45:38.513Z,62.84
2019-04-25T08:46:39.378Z,62.01
2019-04-25T08:47:38.330Z,61.81
2019-04-25T08:48:38.360Z,60.75
2019-04-25T08:49:38.360Z,59.80
2019-04-25T08:50:40.152Z,59.80
2019-04-25T08:51:38.398Z,59.41
2019-04-25T08:52:38.408Z,59.41
2019-04-25T08:53:38.886Z,59.32
2019-04-25T08:54:41.495Z,60.08
2019-04-25T08:55:38.469Z,60.28
2019-04-25T08:56:38.479Z,58.74
2019-04-25T08:57:38.488Z,58.94
2019-04-25T08:58:39.147Z,59.48
2019-04-25T08:59:43.297Z,60.05
2019-04-25T09:00:38.538Z,60.72
2019-04-25T09:01:40.621Z,60.35
2019-04-25T09:02:38.913Z,59.96
2019-04-25T09:03:38.571Z,59.89
2019-04-25T09:04:38.582Z,59.89
2019-04-25T09:05:38.992Z,59.61
2019-04-25T09:06:38.667Z,59.03
2019-04-25T09:07:39.095Z,59.22
2019-04-25T09:08:39.448Z,59.51
2019-04-25T09:09:39.021Z,59.34
2019-04-25T09:10:40.107Z,59.54
2019-04-25T09:11:40.019Z,59.64
2019-04-25T09:12:39.686Z,59.54
2019-04-25T09:13:39.539Z,59.64
2019-04-25T09:14:39.048Z,59.25
2019-04-25T09:15:39.466Z,59.44
2019-04-25T09:16:39.794Z,59.06
2019-04-25T09:17:39.390Z,57.81
2019-04-25T09:18:38.812Z,58.58
2019-04-25T09:19:38.819Z,58.00
2019-04-25T09:20:40.838Z,58.29
2019-04-25T09:21:41.693Z,58.55
2019-04-25T09:22:39.903Z,58.36
2019-04-25T09:23:39.643Z,58.64
2019-04-25T09:24:39.234Z,59.51
2019-04-25T09:25:38.913Z,59.32
2019-04-25T09:26:38.929Z,59.41
2019-04-25T09:27:40.382Z,59.89
2019-04-25T09:28:40.754Z,59.12
2019-04-25T09:29:38.989Z,59.12
2019-04-25T09:30:38.981Z,59.51
2019-04-25T09:31:40.196Z,59.41
2019-04-25T09:32:39.874Z,59.73
2019-04-25T09:33:39.183Z,59.06
2019-04-25T09:34:39.040Z,59.44
2019-04-25T09:35:39.575Z,58.67
2019-04-25T09:36:39.933Z,59.44
2019-04-25T09:37:39.101Z,59.73
2019-04-25T09:38:39.098Z,58.77
2019-04-25T09:39:39.116Z,58.87
2019-04-25T09:40:39.521Z,59.61
2019-04-25T09:41:39.883Z,59.99
2019-04-25T09:42:39.425Z,60.08
2019-04-25T09:43:39.173Z,60.18
2019-04-25T09:44:39.360Z,59.89
2019-04-25T09:45:39.609Z,59.99
2019-04-25T09:46:39.508Z,59.92
2019-04-25T09:47:39.302Z,59.64
2019-04-25T09:48:40.226Z,59.44
2019-04-25T09:49:39.261Z,59.83
2019-04-25T09:50:39.684Z,60.40
2019-04-25T09:51:39.743Z,60.11
2019-04-25T09:52:40.168Z,59.44
2019-04-25T09:53:44.754Z,59.83
2019-04-25T09:54:39.910Z,60.21
2019-04-25T09:55:39.597Z,60.11
2019-04-25T09:56:39.368Z,60.98
2019-04-25T09:57:39.386Z,60.50
2019-04-25T09:58:40.102Z,59.92
2019-04-25T09:59:39.422Z,59.92
2019-04-25T10:00:40.218Z,60.05
2019-04-25T10:01:40.208Z,59.47
2019-04-25T10:02:40.241Z,60.14
2019-04-25T10:03:39.478Z,59.57
2019-04-25T10:04:39.503Z,60.14
2019-04-25T10:05:40.350Z,59.92
2019-04-25T10:06:39.519Z,60.02
2019-04-25T10:07:39.536Z,60.40
2019-04-25T10:08:39.558Z,60.21
2019-04-25T10:09:39.872Z,60.40
2019-04-25T10:10:40.460Z,60.14
2019-04-25T10:11:39.943Z,60.14
2019-04-25T10:12:39.625Z,59.66
2019-04-25T10:13:40.048Z,59.66
2019-04-25T10:14:39.653Z,60.02
2019-04-25T10:15:39.661Z,60.21
2019-04-25T10:16:40.227Z,60.11
2019-04-25T10:17:39.693Z,60.24
2019-04-25T10:18:39.702Z,61.30
2019-04-25T10:19:39.717Z,61.01
2019-04-25T10:20:39.744Z,60.43
2019-04-25T10:21:39.778Z,60.05
2019-04-25T10:22:40.345Z,60.63
2019-04-25T10:23:39.908Z,60.40
2019-04-25T10:24:39.814Z,60.78
2019-04-25T10:25:39.814Z,61.46
2019-04-25T10:26:39.895Z,61.94
2019-04-25T10:27:40.699Z,62.32
2019-04-25T10:28:39.871Z,62.42
2019-04-25T10:29:47.234Z,62.52
2019-04-25T10:30:41.003Z,62.52
2019-04-25T10:31:40.695Z,63.09
2019-04-25T10:32:39.921Z,62.71
2019-04-25T10:33:39.994Z,63.09
2019-04-25T10:34:40.319Z,63.06
2019-04-25T10:35:47.915Z,63.16
2019-04-25T10:36:42.097Z,62.52
2019-04-25T10:37:40.830Z,62.99
2019-04-25T10:38:40.324Z,62.42
2019-04-25T10:39:40.129Z,62.32
2019-04-25T10:40:40.608Z,61.36
2019-04-25T10:41:41.216Z,61.36
2019-04-25T10:42:40.664Z,61.46
2019-04-25T10:43:40.477Z,61.27
2019-04-25T10:44:40.207Z,61.08
2019-04-25T10:45:40.745Z,62.16
2019-04-25T10:46:40.226Z,61.58
2019-04-25T10:47:40.229Z,60.14
2019-04-25T10:48:40.165Z,60.24
2019-04-25T10:49:40.672Z,60.14
2019-04-25T10:50:40.321Z,60.37
2019-04-25T10:51:40.831Z,59.89
2019-04-25T10:52:41.491Z,60.27
2019-04-25T10:53:40.994Z,59.89
2019-04-25T10:54:41.196Z,59.69
2019-04-25T10:55:40.402Z,59.79
2019-04-25T10:56:40.292Z,59.50
2019-04-25T10:57:40.312Z,59.50
2019-04-25T10:58:40.313Z,59.99
2019-04-25T10:59:52.958Z,59.63
2019-04-25T11:00:40.793Z,58.37
2019-04-25T11:01:41.222Z,58.67
2019-04-25T11:02:40.959Z,57.80
2019-04-25T11:03:41.203Z,56.67
2019-04-25T11:04:41.071Z,57.06
2019-04-25T11:05:40.565Z,56.80
2019-04-25T11:06:40.866Z,56.12
2019-04-25T11:07:40.668Z,57.09
2019-04-25T11:08:40.512Z,57.37
2019-04-25T11:09:40.645Z,57.09
2019-04-25T11:10:40.580Z,57.76
2019-04-25T11:11:40.718Z,57.37
2019-04-25T11:12:41.408Z,57.15
2019-04-25T11:13:41.612Z,55.71
2019-04-25T11:14:40.928Z,55.62
2019-04-25T11:15:40.594Z,56.00
2019-04-25T11:16:40.589Z,56.29
2019-04-25T11:17:40.615Z,54.65
2019-04-25T11:18:40.947Z,55.23
2019-04-25T11:19:41.071Z,54.46
2019-04-25T11:20:41.054Z,54.20
2019-04-25T11:21:41.271Z,54.20
2019-04-25T11:22:40.946Z,53.72
2019-04-25T11:23:41.401Z,52.97
2019-04-25T11:24:41.627Z,52.30
2019-04-25T11:25:41.518Z,53.00
2019-04-25T11:26:41.542Z,51.84
2019-04-25T11:27:40.763Z,52.61
2019-04-25T11:28:40.786Z,52.52
2019-04-25T11:29:41.640Z,51.46
2019-04-25T11:30:41.866Z,51.65
2019-04-25T11:31:40.816Z,52.13
2019-04-25T11:32:40.839Z,52.61
2019-04-25T11:33:40.849Z,52.81
2019-04-25T11:34:40.881Z,53.00
2019-04-25T11:35:40.888Z,52.45
2019-04-25T11:36:40.898Z,50.98
2019-04-25T11:37:40.929Z,50.59
2019-04-25T11:38:40.924Z,51.36
2019-04-25T11:39:41.810Z,51.36
2019-04-25T11:40:43.580Z,51.56
2019-04-25T11:41:40.976Z,52.23
2019-04-25T11:42:41.866Z,50.49
2019-04-25T11:43:43.490Z,50.88
2019-04-25T11:44:41.018Z,51.46
2019-04-25T11:45:41.038Z,51.75
2019-04-25T11:46:41.071Z,52.42
2019-04-25T11:47:41.076Z,52.04
2019-04-25T11:48:41.184Z,52.13
2019-04-25T11:49:42.273Z,52.33
2019-04-25T11:50:41.131Z,51.05
2019-04-25T11:51:41.826Z,52.11
2019-04-25T11:52:41.161Z,52.30
2019-04-25T11:53:41.164Z,52.81
2019-04-25T11:54:41.188Z,52.04
2019-04-25T11:55:41.188Z,52.30
2019-04-25T11:56:42.661Z,52.78
2019-04-25T11:57:44.132Z,53.29
2019-04-25T11:58:42.587Z,52.97
2019-04-25T11:59:41.988Z,52.59
2019-04-25T12:00:42.065Z,52.59
2019-04-25T12:01:42.524Z,52.49
2019-04-25T12:02:41.301Z,52.30
2019-04-25T12:03:41.319Z,52.04
2019-04-25T12:04:42.674Z,52.69
2019-04-25T12:05:42.947Z,51.53
2019-04-25T12:06:41.375Z,51.24
2019-04-25T12:07:41.390Z,50.57
2019-04-25T12:08:41.394Z,50.78
2019-04-25T12:09:43.147Z,51.05
2019-04-25T12:10:41.437Z,51.72
2019-04-25T12:11:41.459Z,52.97
2019-04-25T12:12:41.464Z,51.34
2019-04-25T12:13:41.477Z,50.85
2019-04-25T12:14:43.222Z,51.14
2019-04-25T12:15:41.545Z,50.37
2019-04-25T12:16:41.518Z,50.76
2019-04-25T12:17:41.545Z,51.14
2019-04-25T12:18:41.550Z,50.27
2019-04-25T12:19:41.576Z,49.89
2019-04-25T12:20:41.597Z,51.14
2019-04-25T12:21:41.611Z,50.45
2019-04-25T12:22:41.628Z,50.25
2019-04-25T12:23:41.630Z,50.35
2019-04-25T12:24:41.646Z,49.99
2019-04-25T12:25:41.681Z,51.24
2019-04-25T12:26:41.687Z,49.96
2019-04-25T12:27:41.690Z,49.96
2019-04-25T12:28:41.704Z,49.77
2019-04-25T12:29:41.727Z,50.35
2019-04-25T12:30:41.733Z,50.54
2019-04-25T12:31:41.764Z,49.68
2019-04-25T12:32:41.769Z,50.47
2019-04-25T12:33:43.411Z,49.60
2019-04-25T12:34:41.809Z,49.15
2019-04-25T12:35:43.512Z,49.73
2019-04-25T12:36:41.840Z,49.91
2019-04-25T12:37:41.846Z,49.53
2019-04-25T12:38:41.868Z,49.73
2019-04-25T12:39:41.886Z,48.93
2019-04-25T12:40:43.388Z,49.32
2019-04-25T12:41:41.923Z,48.93
2019-04-25T12:42:41.921Z,48.93
2019-04-25T12:43:41.948Z,49.02
2019-04-25T12:44:43.443Z,49.41
2019-04-25T12:45:43.396Z,49.05
2019-04-25T12:46:43.573Z,47.82
2019-04-25T12:47:42.002Z,46.30
2019-04-25T12:48:43.214Z,46.23
2019-04-25T12:49:43.696Z,46.23
2019-04-25T12:50:43.852Z,47.41
2019-04-25T12:51:42.074Z,47.70
2019-04-25T12:52:43.303Z,46.73
2019-04-25T12:53:43.736Z,45.79
2019-04-25T12:54:42.117Z,46.37